sensor_id;sensor_type;location;lat;lon;timestamp;P1;durP1;ratioP1;P2;durP2;ratioP2
7025;SDS011;3554;42.132;24.786;2023-04-03T00:00:03;1.10;;;1.07;;
7025;SDS011;3554;42.132;24.786;2023-04-03T00:02:32;2.50;;;1.63;;
7025;SDS011;3554;42.132;24.786;2023-04-03T00:04:58;1.90;;;1.77;;
7025;SDS011;3554;42.132;24.786;2023-04-03T00:07:25;2.10;;;2.00;;
7025;SDS011;3554;42.132;24.786;2023-04-03T00:09:54;5.47;;;2.23;;
7025;SDS011;3554;42.132;24.786;2023-04-03T00:12:20;2.30;;;1.57;;
7025;SDS011;3554;42.132;24.786;2023-04-03T00:14:47;1.87;;;1.77;;
7025;SDS011;3554;42.132;24.786;2023-04-03T00:17:14;1.87;;;1.77;;
7025;SDS011;3554;42.132;24.786;2023-04-03T00:19:41;1.70;;;1.60;;
7025;SDS011;3554;42.132;24.786;2023-04-03T00:22:08;1.40;;;1.30;;
7025;SDS011;3554;42.132;24.786;2023-04-03T00:24:34;1.90;;;1.10;;
7025;SDS011;3554;42.132;24.786;2023-04-03T00:27:02;1.90;;;1.00;;
7025;SDS011;3554;42.132;24.786;2023-04-03T00:29:29;3.23;;;1.27;;
7025;SDS011;3554;42.132;24.786;2023-04-03T00:31:56;1.13;;;1.03;;
7025;SDS011;3554;42.132;24.786;2023-04-03T00:34:23;1.40;;;1.30;;
7025;SDS011;3554;42.132;24.786;2023-04-03T00:36:49;1.07;;;1.07;;
7025;SDS011;3554;42.132;24.786;2023-04-03T00:39:17;1.13;;;1.13;;
7025;SDS011;3554;42.132;24.786;2023-04-03T00:41:43;1.53;;;1.27;;
7025;SDS011;3554;42.132;24.786;2023-04-03T00:44:21;1.27;;;1.17;;
7025;SDS011;3554;42.132;24.786;2023-04-03T00:47:10;1.00;;;1.00;;
7025;SDS011;3554;42.132;24.786;2023-04-03T00:49:39;0.90;;;0.90;;
7025;SDS011;3554;42.132;24.786;2023-04-03T00:52:07;1.43;;;1.33;;
7025;SDS011;3554;42.132;24.786;2023-04-03T00:54:41;1.27;;;1.00;;
7025;SDS011;3554;42.132;24.786;2023-04-03T00:57:09;1.00;;;1.00;;
7025;SDS011;3554;42.132;24.786;2023-04-03T00:59:38;0.90;;;0.90;;
7025;SDS011;3554;42.132;24.786;2023-04-03T01:02:09;1.20;;;1.10;;
7025;SDS011;3554;42.132;24.786;2023-04-03T01:04:37;1.33;;;1.23;;
7025;SDS011;3554;42.132;24.786;2023-04-03T01:07:05;1.23;;;1.13;;
7025;SDS011;3554;42.132;24.786;2023-04-03T01:09:34;1.83;;;0.93;;
7025;SDS011;3554;42.132;24.786;2023-04-03T01:12:15;3.80;;;1.20;;
7025;SDS011;3554;42.132;24.786;2023-04-03T01:14:44;0.90;;;0.90;;
7025;SDS011;3554;42.132;24.786;2023-04-03T01:17:27;1.20;;;1.20;;
7025;SDS011;3554;42.132;24.786;2023-04-03T01:20:01;1.20;;;1.10;;
7025;SDS011;3554;42.132;24.786;2023-04-03T01:22:46;1.57;;;1.33;;
7025;SDS011;3554;42.132;24.786;2023-04-03T01:25:22;1.27;;;1.00;;
7025;SDS011;3554;42.132;24.786;2023-04-03T01:27:49;1.53;;;1.43;;
7025;SDS011;3554;42.132;24.786;2023-04-03T01:30:18;2.80;;;1.20;;
7025;SDS011;3554;42.132;24.786;2023-04-03T01:32:48;1.77;;;1.47;;
7025;SDS011;3554;42.132;24.786;2023-04-03T01:35:15;1.40;;;1.30;;
7025;SDS011;3554;42.132;24.786;2023-04-03T01:37:42;1.63;;;1.53;;
7025;SDS011;3554;42.132;24.786;2023-04-03T01:40:09;1.30;;;1.30;;
7025;SDS011;3554;42.132;24.786;2023-04-03T01:42:36;0.93;;;0.93;;
7025;SDS011;3554;42.132;24.786;2023-04-03T01:45:03;3.47;;;2.07;;
7025;SDS011;3554;42.132;24.786;2023-04-03T01:47:30;2.87;;;1.60;;
7025;SDS011;3554;42.132;24.786;2023-04-03T01:49:58;1.93;;;1.83;;
7025;SDS011;3554;42.132;24.786;2023-04-03T01:52:25;2.73;;;1.80;;
7025;SDS011;3554;42.132;24.786;2023-04-03T01:54:52;3.10;;;2.13;;
7025;SDS011;3554;42.132;24.786;2023-04-03T01:57:18;5.33;;;2.37;;
7025;SDS011;3554;42.132;24.786;2023-04-03T01:59:45;2.67;;;2.00;;
7025;SDS011;3554;42.132;24.786;2023-04-03T02:02:12;5.83;;;2.20;;
7025;SDS011;3554;42.132;24.786;2023-04-03T02:04:39;2.37;;;2.17;;
7025;SDS011;3554;42.132;24.786;2023-04-03T02:07:08;2.50;;;2.30;;
7025;SDS011;3554;42.132;24.786;2023-04-03T02:09:34;4.33;;;2.80;;
7025;SDS011;3554;42.132;24.786;2023-04-03T02:12:01;3.13;;;2.80;;
7025;SDS011;3554;42.132;24.786;2023-04-03T02:14:28;5.37;;;2.80;;
7025;SDS011;3554;42.132;24.786;2023-04-03T02:16:55;3.40;;;2.97;;
7025;SDS011;3554;42.132;24.786;2023-04-03T02:19:22;5.50;;;3.20;;
7025;SDS011;3554;42.132;24.786;2023-04-03T02:21:49;3.13;;;2.87;;
7025;SDS011;3554;42.132;24.786;2023-04-03T02:24:17;7.07;;;3.40;;
7025;SDS011;3554;42.132;24.786;2023-04-03T02:26:43;3.27;;;2.97;;
7025;SDS011;3554;42.132;24.786;2023-04-03T02:29:10;6.37;;;3.10;;
7025;SDS011;3554;42.132;24.786;2023-04-03T02:31:37;3.03;;;2.80;;
7025;SDS011;3554;42.132;24.786;2023-04-03T02:34:04;9.07;;;3.40;;
7025;SDS011;3554;42.132;24.786;2023-04-03T02:36:30;5.43;;;3.20;;
7025;SDS011;3554;42.132;24.786;2023-04-03T02:38:57;7.97;;;3.43;;
7025;SDS011;3554;42.132;24.786;2023-04-03T02:41:25;7.37;;;3.00;;
7025;SDS011;3554;42.132;24.786;2023-04-03T02:43:58;5.17;;;3.20;;
7025;SDS011;3554;42.132;24.786;2023-04-03T02:46:25;3.50;;;3.10;;
7025;SDS011;3554;42.132;24.786;2023-04-03T02:48:52;6.00;;;3.57;;
7025;SDS011;3554;42.132;24.786;2023-04-03T02:51:18;6.07;;;3.67;;
7025;SDS011;3554;42.132;24.786;2023-04-03T02:53:45;5.93;;;3.13;;
7025;SDS011;3554;42.132;24.786;2023-04-03T02:56:12;4.30;;;3.53;;
7025;SDS011;3554;42.132;24.786;2023-04-03T02:58:40;7.70;;;3.47;;
7025;SDS011;3554;42.132;24.786;2023-04-03T03:01:07;5.93;;;3.93;;
7025;SDS011;3554;42.132;24.786;2023-04-03T03:03:34;5.33;;;3.90;;
7025;SDS011;3554;42.132;24.786;2023-04-03T03:06:01;5.23;;;3.87;;
7025;SDS011;3554;42.132;24.786;2023-04-03T03:08:28;4.23;;;3.50;;
7025;SDS011;3554;42.132;24.786;2023-04-03T03:10:55;7.70;;;4.00;;
7025;SDS011;3554;42.132;24.786;2023-04-03T03:13:22;4.13;;;3.73;;
7025;SDS011;3554;42.132;24.786;2023-04-03T03:15:50;10.50;;;3.47;;
7025;SDS011;3554;42.132;24.786;2023-04-03T03:18:17;4.57;;;3.90;;
7025;SDS011;3554;42.132;24.786;2023-04-03T03:20:45;4.63;;;4.00;;
7025;SDS011;3554;42.132;24.786;2023-04-03T03:23:11;8.77;;;4.40;;
7025;SDS011;3554;42.132;24.786;2023-04-03T03:25:38;5.90;;;4.10;;
7025;SDS011;3554;42.132;24.786;2023-04-03T03:28:06;13.03;;;5.23;;
7025;SDS011;3554;42.132;24.786;2023-04-03T03:30:33;8.13;;;5.63;;
7025;SDS011;3554;42.132;24.786;2023-04-03T03:33:01;5.90;;;4.23;;
7025;SDS011;3554;42.132;24.786;2023-04-03T03:35:28;5.43;;;4.60;;
7025;SDS011;3554;42.132;24.786;2023-04-03T03:37:55;6.40;;;5.13;;
7025;SDS011;3554;42.132;24.786;2023-04-03T03:40:21;4.97;;;4.67;;
7025;SDS011;3554;42.132;24.786;2023-04-03T03:42:48;7.27;;;4.97;;
7025;SDS011;3554;42.132;24.786;2023-04-03T03:45:15;6.33;;;4.83;;
7025;SDS011;3554;42.132;24.786;2023-04-03T03:47:42;7.37;;;5.13;;
7025;SDS011;3554;42.132;24.786;2023-04-03T03:50:10;5.30;;;4.80;;
7025;SDS011;3554;42.132;24.786;2023-04-03T03:52:37;6.33;;;5.13;;
7025;SDS011;3554;42.132;24.786;2023-04-03T03:55:04;7.00;;;4.70;;
7025;SDS011;3554;42.132;24.786;2023-04-03T03:57:31;5.87;;;4.70;;
7025;SDS011;3554;42.132;24.786;2023-04-03T03:59:57;5.93;;;4.77;;
7025;SDS011;3554;42.132;24.786;2023-04-03T04:02:24;5.63;;;5.13;;
7025;SDS011;3554;42.132;24.786;2023-04-03T04:04:51;7.20;;;5.47;;
7025;SDS011;3554;42.132;24.786;2023-04-03T04:07:19;9.10;;;5.40;;
7025;SDS011;3554;42.132;24.786;2023-04-03T04:09:46;7.00;;;5.90;;
7025;SDS011;3554;42.132;24.786;2023-04-03T04:12:13;6.27;;;5.27;;
7025;SDS011;3554;42.132;24.786;2023-04-03T04:14:41;5.87;;;5.27;;
7025;SDS011;3554;42.132;24.786;2023-04-03T04:17:07;5.47;;;4.30;;
7025;SDS011;3554;42.132;24.786;2023-04-03T04:19:34;5.73;;;5.03;;
7025;SDS011;3554;42.132;24.786;2023-04-03T04:22:01;7.50;;;4.60;;
7025;SDS011;3554;42.132;24.786;2023-04-03T04:24:29;5.40;;;5.00;;
7025;SDS011;3554;42.132;24.786;2023-04-03T04:26:56;8.60;;;5.50;;
7025;SDS011;3554;42.132;24.786;2023-04-03T04:29:23;13.53;;;6.07;;
7025;SDS011;3554;42.132;24.786;2023-04-03T04:31:50;9.17;;;6.17;;
7025;SDS011;3554;42.132;24.786;2023-04-03T04:34:17;10.93;;;6.00;;
7025;SDS011;3554;42.132;24.786;2023-04-03T04:36:44;9.63;;;5.53;;
7025;SDS011;3554;42.132;24.786;2023-04-03T04:39:11;6.27;;;5.67;;
7025;SDS011;3554;42.132;24.786;2023-04-03T04:41:39;13.87;;;6.43;;
7025;SDS011;3554;42.132;24.786;2023-04-03T04:44:06;12.00;;;5.90;;
7025;SDS011;3554;42.132;24.786;2023-04-03T04:46:33;5.47;;;4.30;;
7025;SDS011;3554;42.132;24.786;2023-04-03T04:49:00;11.03;;;7.03;;
7025;SDS011;3554;42.132;24.786;2023-04-03T04:51:27;10.60;;;7.07;;
7025;SDS011;3554;42.132;24.786;2023-04-03T04:53:53;21.33;;;7.27;;
7025;SDS011;3554;42.132;24.786;2023-04-03T04:56:20;11.80;;;7.60;;
7025;SDS011;3554;42.132;24.786;2023-04-03T04:58:48;13.90;;;6.73;;
7025;SDS011;3554;42.132;24.786;2023-04-03T05:01:15;11.53;;;6.40;;
7025;SDS011;3554;42.132;24.786;2023-04-03T05:03:43;6.33;;;5.77;;
7025;SDS011;3554;42.132;24.786;2023-04-03T05:06:10;15.43;;;7.17;;
7025;SDS011;3554;42.132;24.786;2023-04-03T05:08:37;16.10;;;7.23;;
7025;SDS011;3554;42.132;24.786;2023-04-03T05:11:04;10.20;;;5.37;;
7025;SDS011;3554;42.132;24.786;2023-04-03T05:13:30;9.67;;;5.40;;
7025;SDS011;3554;42.132;24.786;2023-04-03T05:15:58;9.73;;;4.90;;
7025;SDS011;3554;42.132;24.786;2023-04-03T05:18:25;5.20;;;4.90;;
7025;SDS011;3554;42.132;24.786;2023-04-03T05:20:52;8.00;;;4.47;;
7025;SDS011;3554;42.132;24.786;2023-04-03T05:23:19;5.30;;;4.77;;
7025;SDS011;3554;42.132;24.786;2023-04-03T05:25:45;8.07;;;4.70;;
7025;SDS011;3554;42.132;24.786;2023-04-03T05:28:13;5.90;;;4.63;;
7025;SDS011;3554;42.132;24.786;2023-04-03T05:30:41;11.57;;;5.07;;
7025;SDS011;3554;42.132;24.786;2023-04-03T05:33:09;6.27;;;5.67;;
7025;SDS011;3554;42.132;24.786;2023-04-03T05:35:36;8.73;;;5.77;;
7025;SDS011;3554;42.132;24.786;2023-04-03T05:38:04;8.23;;;5.07;;
7025;SDS011;3554;42.132;24.786;2023-04-03T05:40:31;5.23;;;4.50;;
7025;SDS011;3554;42.132;24.786;2023-04-03T05:42:58;5.70;;;5.20;;
7025;SDS011;3554;42.132;24.786;2023-04-03T05:45:25;7.83;;;5.33;;
7025;SDS011;3554;42.132;24.786;2023-04-03T05:47:51;7.63;;;6.87;;
7025;SDS011;3554;42.132;24.786;2023-04-03T05:50:20;7.87;;;5.40;;
7025;SDS011;3554;42.132;24.786;2023-04-03T05:52:47;7.20;;;5.23;;
7025;SDS011;3554;42.132;24.786;2023-04-03T05:55:17;10.73;;;5.33;;
7025;SDS011;3554;42.132;24.786;2023-04-03T05:57:44;7.00;;;6.30;;
7025;SDS011;3554;42.132;24.786;2023-04-03T06:00:11;5.73;;;5.27;;
7025;SDS011;3554;42.132;24.786;2023-04-03T06:02:40;4.90;;;4.50;;
7025;SDS011;3554;42.132;24.786;2023-04-03T06:05:08;7.83;;;4.40;;
7025;SDS011;3554;42.132;24.786;2023-04-03T06:07:38;7.10;;;5.37;;
7025;SDS011;3554;42.132;24.786;2023-04-03T06:10:05;5.90;;;5.30;;
7025;SDS011;3554;42.132;24.786;2023-04-03T06:12:33;8.73;;;5.37;;
7025;SDS011;3554;42.132;24.786;2023-04-03T06:15:00;7.53;;;5.77;;
7025;SDS011;3554;42.132;24.786;2023-04-03T06:17:27;6.83;;;5.83;;
7025;SDS011;3554;42.132;24.786;2023-04-03T06:19:54;6.37;;;5.77;;
7025;SDS011;3554;42.132;24.786;2023-04-03T06:22:23;6.33;;;5.83;;
7025;SDS011;3554;42.132;24.786;2023-04-03T06:24:52;8.60;;;5.60;;
7025;SDS011;3554;42.132;24.786;2023-04-03T06:27:19;6.40;;;5.80;;
7025;SDS011;3554;42.132;24.786;2023-04-03T06:29:46;7.17;;;6.40;;
7025;SDS011;3554;42.132;24.786;2023-04-03T06:32:13;8.23;;;6.30;;
7025;SDS011;3554;42.132;24.786;2023-04-03T06:34:41;9.70;;;5.73;;
7025;SDS011;3554;42.132;24.786;2023-04-03T06:37:10;8.33;;;5.83;;
7025;SDS011;3554;42.132;24.786;2023-04-03T06:39:37;14.27;;;6.47;;
7025;SDS011;3554;42.132;24.786;2023-04-03T06:42:05;10.33;;;6.60;;
7025;SDS011;3554;42.132;24.786;2023-04-03T06:44:32;9.13;;;6.47;;
7025;SDS011;3554;42.132;24.786;2023-04-03T06:46:59;9.87;;;6.67;;
7025;SDS011;3554;42.132;24.786;2023-04-03T06:49:27;9.87;;;6.57;;
7025;SDS011;3554;42.132;24.786;2023-04-03T06:51:54;16.57;;;8.57;;
7025;SDS011;3554;42.132;24.786;2023-04-03T06:54:21;11.47;;;7.73;;
7025;SDS011;3554;42.132;24.786;2023-04-03T06:56:48;17.57;;;8.70;;
7025;SDS011;3554;42.132;24.786;2023-04-03T06:59:16;16.70;;;9.70;;
7025;SDS011;3554;42.132;24.786;2023-04-03T07:01:43;10.70;;;8.50;;
7025;SDS011;3554;42.132;24.786;2023-04-03T07:04:10;14.17;;;9.53;;
7025;SDS011;3554;42.132;24.786;2023-04-03T07:06:37;16.90;;;9.80;;
7025;SDS011;3554;42.132;24.786;2023-04-03T07:09:04;10.23;;;8.77;;
7025;SDS011;3554;42.132;24.786;2023-04-03T07:11:32;14.83;;;9.50;;
7025;SDS011;3554;42.132;24.786;2023-04-03T07:13:59;13.53;;;8.67;;
7025;SDS011;3554;42.132;24.786;2023-04-03T07:16:27;11.63;;;8.77;;
7025;SDS011;3554;42.132;24.786;2023-04-03T07:18:55;9.57;;;8.70;;
7025;SDS011;3554;42.132;24.786;2023-04-03T07:21:22;10.17;;;7.27;;
7025;SDS011;3554;42.132;24.786;2023-04-03T07:23:49;6.87;;;6.13;;
7025;SDS011;3554;42.132;24.786;2023-04-03T07:26:16;7.93;;;6.43;;
7025;SDS011;3554;42.132;24.786;2023-04-03T07:28:43;5.17;;;4.47;;
7025;SDS011;3554;42.132;24.786;2023-04-03T07:31:14;6.03;;;5.40;;
7025;SDS011;3554;42.132;24.786;2023-04-03T07:33:43;11.13;;;5.00;;
7025;SDS011;3554;42.132;24.786;2023-04-03T07:36:11;6.27;;;5.23;;
7025;SDS011;3554;42.132;24.786;2023-04-03T07:38:42;11.07;;;5.23;;
7025;SDS011;3554;42.132;24.786;2023-04-03T07:41:10;6.57;;;4.13;;
7025;SDS011;3554;42.132;24.786;2023-04-03T07:43:40;15.30;;;4.83;;
7025;SDS011;3554;42.132;24.786;2023-04-03T07:46:07;7.53;;;4.50;;
7025;SDS011;3554;42.132;24.786;2023-04-03T07:48:34;4.57;;;4.07;;
7025;SDS011;3554;42.132;24.786;2023-04-03T07:51:03;4.40;;;4.10;;
7025;SDS011;3554;42.132;24.786;2023-04-03T07:53:30;7.30;;;5.00;;
7025;SDS011;3554;42.132;24.786;2023-04-03T07:55:58;6.20;;;5.30;;
7025;SDS011;3554;42.132;24.786;2023-04-03T07:58:28;9.60;;;6.07;;
7025;SDS011;3554;42.132;24.786;2023-04-03T08:00:55;6.87;;;6.20;;
7025;SDS011;3554;42.132;24.786;2023-04-03T08:03:22;9.27;;;7.17;;
7025;SDS011;3554;42.132;24.786;2023-04-03T08:05:49;11.27;;;7.30;;
7025;SDS011;3554;42.132;24.786;2023-04-03T08:08:20;7.47;;;6.77;;
7025;SDS011;3554;42.132;24.786;2023-04-03T08:10:49;7.77;;;6.40;;
7025;SDS011;3554;42.132;24.786;2023-04-03T08:13:16;11.03;;;7.40;;
7025;SDS011;3554;42.132;24.786;2023-04-03T08:15:43;5.33;;;4.93;;
7025;SDS011;3554;42.132;24.786;2023-04-03T08:18:10;5.50;;;5.00;;
7025;SDS011;3554;42.132;24.786;2023-04-03T08:20:37;5.17;;;3.80;;
7025;SDS011;3554;42.132;24.786;2023-04-03T08:23:05;9.30;;;4.60;;
7025;SDS011;3554;42.132;24.786;2023-04-03T08:25:33;4.63;;;4.10;;
7025;SDS011;3554;42.132;24.786;2023-04-03T08:28:01;9.00;;;4.53;;
7025;SDS011;3554;42.132;24.786;2023-04-03T08:30:28;4.93;;;3.77;;
7025;SDS011;3554;42.132;24.786;2023-04-03T08:32:56;4.33;;;3.93;;
7025;SDS011;3554;42.132;24.786;2023-04-03T08:35:22;3.63;;;3.30;;
7025;SDS011;3554;42.132;24.786;2023-04-03T08:37:49;3.07;;;2.30;;
7025;SDS011;3554;42.132;24.786;2023-04-03T08:40:16;3.23;;;3.03;;
7025;SDS011;3554;42.132;24.786;2023-04-03T08:42:49;3.23;;;3.00;;
7025;SDS011;3554;42.132;24.786;2023-04-03T08:45:26;3.67;;;3.17;;
7025;SDS011;3554;42.132;24.786;2023-04-03T08:48:11;2.93;;;2.73;;
7025;SDS011;3554;42.132;24.786;2023-04-03T08:50:42;3.70;;;2.80;;
7025;SDS011;3554;42.132;24.786;2023-04-03T08:53:13;3.43;;;3.23;;
7025;SDS011;3554;42.132;24.786;2023-04-03T08:55:43;3.13;;;2.77;;
7025;SDS011;3554;42.132;24.786;2023-04-03T08:58:14;3.67;;;3.10;;
7025;SDS011;3554;42.132;24.786;2023-04-03T09:00:44;3.90;;;3.57;;
7025;SDS011;3554;42.132;24.786;2023-04-03T09:03:15;3.93;;;3.67;;
7025;SDS011;3554;42.132;24.786;2023-04-03T09:05:45;4.77;;;4.37;;
7025;SDS011;3554;42.132;24.786;2023-04-03T09:08:18;11.40;;;4.67;;
7025;SDS011;3554;42.132;24.786;2023-04-03T09:10:49;21.53;;;5.47;;
7025;SDS011;3554;42.132;24.786;2023-04-03T09:13:26;3.57;;;2.83;;
7025;SDS011;3554;42.132;24.786;2023-04-03T09:15:57;7.77;;;2.13;;
7025;SDS011;3554;42.132;24.786;2023-04-03T09:18:25;1.93;;;1.83;;
7025;SDS011;3554;42.132;24.786;2023-04-03T09:20:58;2.53;;;2.07;;
7025;SDS011;3554;42.132;24.786;2023-04-03T09:23:32;2.43;;;2.33;;
7025;SDS011;3554;42.132;24.786;2023-04-03T09:26:03;2.27;;;2.10;;
7025;SDS011;3554;42.132;24.786;2023-04-03T09:28:37;2.57;;;2.40;;
7025;SDS011;3554;42.132;24.786;2023-04-03T09:31:11;2.57;;;2.47;;
7025;SDS011;3554;42.132;24.786;2023-04-03T09:33:44;2.60;;;2.40;;
7025;SDS011;3554;42.132;24.786;2023-04-03T09:36:12;3.10;;;2.57;;
7025;SDS011;3554;42.132;24.786;2023-04-03T09:38:39;3.03;;;2.40;;
7025;SDS011;3554;42.132;24.786;2023-04-03T09:41:09;3.57;;;2.13;;
7025;SDS011;3554;42.132;24.786;2023-04-03T09:43:44;2.90;;;1.90;;
7025;SDS011;3554;42.132;24.786;2023-04-03T09:46:24;2.40;;;2.20;;
7025;SDS011;3554;42.132;24.786;2023-04-03T09:48:55;3.67;;;1.83;;
7025;SDS011;3554;42.132;24.786;2023-04-03T09:51:25;3.00;;;2.00;;
7025;SDS011;3554;42.132;24.786;2023-04-03T09:53:53;3.67;;;2.10;;
7025;SDS011;3554;42.132;24.786;2023-04-03T09:56:22;2.50;;;2.30;;
7025;SDS011;3554;42.132;24.786;2023-04-03T09:59:02;1.97;;;1.87;;
7025;SDS011;3554;42.132;24.786;2023-04-03T10:01:34;4.03;;;2.53;;
7025;SDS011;3554;42.132;24.786;2023-04-03T10:04:07;4.03;;;2.73;;
7025;SDS011;3554;42.132;24.786;2023-04-03T10:06:37;2.73;;;2.53;;
7025;SDS011;3554;42.132;24.786;2023-04-03T10:09:06;6.53;;;2.60;;
7025;SDS011;3554;42.132;24.786;2023-04-03T10:14:36;3.00;;;2.80;;
7025;SDS011;3554;42.132;24.786;2023-04-03T10:17:11;3.10;;;2.90;;
7025;SDS011;3554;42.132;24.786;2023-04-03T10:19:44;4.50;;;4.10;;
7025;SDS011;3554;42.132;24.786;2023-04-03T10:22:21;3.40;;;3.20;;
7025;SDS011;3554;42.132;24.786;2023-04-03T10:25:00;4.33;;;3.27;;
7025;SDS011;3554;42.132;24.786;2023-04-03T10:27:33;4.50;;;4.23;;
7025;SDS011;3554;42.132;24.786;2023-04-03T10:30:12;7.67;;;6.97;;
7025;SDS011;3554;42.132;24.786;2023-04-03T10:32:53;4.57;;;4.17;;
7025;SDS011;3554;42.132;24.786;2023-04-03T10:35:32;5.13;;;3.70;;
7025;SDS011;3554;42.132;24.786;2023-04-03T10:38:09;4.63;;;4.17;;
7025;SDS011;3554;42.132;24.786;2023-04-03T10:40:44;4.37;;;3.97;;
7025;SDS011;3554;42.132;24.786;2023-04-03T10:43:19;3.00;;;2.73;;
7025;SDS011;3554;42.132;24.786;2023-04-03T10:45:59;5.27;;;4.80;;
7025;SDS011;3554;42.132;24.786;2023-04-03T10:48:38;4.70;;;4.40;;
7025;SDS011;3554;42.132;24.786;2023-04-03T10:51:16;5.17;;;4.63;;
7025;SDS011;3554;42.132;24.786;2023-04-03T10:53:52;5.83;;;5.33;;
7025;SDS011;3554;42.132;24.786;2023-04-03T10:56:26;6.57;;;5.33;;
7025;SDS011;3554;42.132;24.786;2023-04-03T10:59:05;4.17;;;3.77;;
7025;SDS011;3554;42.132;24.786;2023-04-03T11:01:44;3.57;;;3.27;;
7025;SDS011;3554;42.132;24.786;2023-04-03T11:04:12;3.27;;;2.97;;
7025;SDS011;3554;42.132;24.786;2023-04-03T11:06:43;3.13;;;2.93;;
7025;SDS011;3554;42.132;24.786;2023-04-03T11:09:16;3.73;;;3.43;;
7025;SDS011;3554;42.132;24.786;2023-04-03T11:11:48;3.10;;;2.90;;
7025;SDS011;3554;42.132;24.786;2023-04-03T11:14:22;2.30;;;2.20;;
7025;SDS011;3554;42.132;24.786;2023-04-03T11:16:55;2.57;;;2.47;;
7025;SDS011;3554;42.132;24.786;2023-04-03T11:19:34;1.80;;;1.60;;
7025;SDS011;3554;42.132;24.786;2023-04-03T11:22:08;2.07;;;1.97;;
7025;SDS011;3554;42.132;24.786;2023-04-03T11:24:38;2.33;;;2.23;;
7025;SDS011;3554;42.132;24.786;2023-04-03T11:27:08;2.20;;;2.00;;
7025;SDS011;3554;42.132;24.786;2023-04-03T11:29:42;2.60;;;2.20;;
7025;SDS011;3554;42.132;24.786;2023-04-03T11:32:20;2.57;;;2.37;;
7025;SDS011;3554;42.132;24.786;2023-04-03T11:34:59;2.50;;;2.30;;
7025;SDS011;3554;42.132;24.786;2023-04-03T11:37:29;2.43;;;2.33;;
7025;SDS011;3554;42.132;24.786;2023-04-03T11:40:01;2.43;;;2.33;;
7025;SDS011;3554;42.132;24.786;2023-04-03T11:42:34;2.67;;;2.40;;
7025;SDS011;3554;42.132;24.786;2023-04-03T11:45:16;2.77;;;2.57;;
7025;SDS011;3554;42.132;24.786;2023-04-03T11:47:52;1.87;;;1.80;;
7025;SDS011;3554;42.132;24.786;2023-04-03T11:53:27;2.57;;;2.37;;
7025;SDS011;3554;42.132;24.786;2023-04-03T12:01:53;3.33;;;3.03;;
7025;SDS011;3554;42.132;24.786;2023-04-03T12:04:23;3.33;;;3.03;;
7025;SDS011;3554;42.132;24.786;2023-04-03T12:06:53;4.47;;;4.03;;
7025;SDS011;3554;42.132;24.786;2023-04-03T12:12:24;3.73;;;3.53;;
7025;SDS011;3554;42.132;24.786;2023-04-03T12:15:11;4.07;;;3.77;;
7025;SDS011;3554;42.132;24.786;2023-04-03T12:17:44;4.37;;;4.17;;
7025;SDS011;3554;42.132;24.786;2023-04-03T12:23:28;3.80;;;3.60;;
7025;SDS011;3554;42.132;24.786;2023-04-03T12:28:48;4.43;;;4.13;;
7025;SDS011;3554;42.132;24.786;2023-04-03T12:31:18;6.80;;;4.03;;
7025;SDS011;3554;42.132;24.786;2023-04-03T12:33:51;5.03;;;4.23;;
7025;SDS011;3554;42.132;24.786;2023-04-03T12:36:30;7.83;;;4.37;;
7025;SDS011;3554;42.132;24.786;2023-04-03T12:39:10;6.37;;;5.77;;
7025;SDS011;3554;42.132;24.786;2023-04-03T12:41:50;5.47;;;5.07;;
7025;SDS011;3554;42.132;24.786;2023-04-03T12:44:25;6.33;;;5.00;;
7025;SDS011;3554;42.132;24.786;2023-04-03T12:47:02;5.13;;;4.63;;
7025;SDS011;3554;42.132;24.786;2023-04-03T12:49:45;5.53;;;4.67;;
7025;SDS011;3554;42.132;24.786;2023-04-03T12:52:19;5.33;;;5.03;;
7025;SDS011;3554;42.132;24.786;2023-04-03T12:54:52;5.83;;;5.17;;
7025;SDS011;3554;42.132;24.786;2023-04-03T12:57:23;6.33;;;5.70;;
7025;SDS011;3554;42.132;24.786;2023-04-03T12:59:52;6.03;;;5.50;;
7025;SDS011;3554;42.132;24.786;2023-04-03T13:02:21;6.63;;;6.17;;
7025;SDS011;3554;42.132;24.786;2023-04-03T13:04:51;7.23;;;5.87;;
7025;SDS011;3554;42.132;24.786;2023-04-03T13:07:25;5.80;;;5.30;;
7025;SDS011;3554;42.132;24.786;2023-04-03T13:09:59;7.73;;;7.00;;
7025;SDS011;3554;42.132;24.786;2023-04-03T13:12:29;7.70;;;6.27;;
7025;SDS011;3554;42.132;24.786;2023-04-03T13:14:57;9.03;;;7.93;;
7025;SDS011;3554;42.132;24.786;2023-04-03T13:17:26;9.60;;;8.80;;
7025;SDS011;3554;42.132;24.786;2023-04-03T13:19:54;7.53;;;6.70;;
7025;SDS011;3554;42.132;24.786;2023-04-03T13:22:28;9.10;;;8.40;;
7025;SDS011;3554;42.132;24.786;2023-04-03T13:25:04;8.80;;;7.97;;
7025;SDS011;3554;42.132;24.786;2023-04-03T13:27:33;8.40;;;7.70;;
7025;SDS011;3554;42.132;24.786;2023-04-03T13:30:04;8.60;;;7.83;;
7025;SDS011;3554;42.132;24.786;2023-04-03T13:32:32;10.17;;;8.17;;
7025;SDS011;3554;42.132;24.786;2023-04-03T13:34:59;8.40;;;7.70;;
7025;SDS011;3554;42.132;24.786;2023-04-03T13:37:31;9.13;;;8.27;;
7025;SDS011;3554;42.132;24.786;2023-04-03T13:40:02;11.33;;;8.80;;
7025;SDS011;3554;42.132;24.786;2023-04-03T13:42:37;11.07;;;8.33;;
7025;SDS011;3554;42.132;24.786;2023-04-03T13:45:08;10.37;;;8.10;;
7025;SDS011;3554;42.132;24.786;2023-04-03T13:47:38;9.23;;;7.93;;
7025;SDS011;3554;42.132;24.786;2023-04-03T13:50:19;12.70;;;8.73;;
7025;SDS011;3554;42.132;24.786;2023-04-03T13:52:49;10.80;;;8.27;;
7025;SDS011;3554;42.132;24.786;2023-04-03T13:55:19;14.37;;;10.03;;
7025;SDS011;3554;42.132;24.786;2023-04-03T13:57:49;9.67;;;8.23;;
7025;SDS011;3554;42.132;24.786;2023-04-03T14:00:19;9.23;;;8.33;;
7025;SDS011;3554;42.132;24.786;2023-04-03T14:02:59;7.87;;;7.07;;
7025;SDS011;3554;42.132;24.786;2023-04-03T14:05:25;8.47;;;7.60;;
7025;SDS011;3554;42.132;24.786;2023-04-03T14:07:54;9.93;;;9.17;;
7025;SDS011;3554;42.132;24.786;2023-04-03T14:10:22;9.57;;;8.53;;
7025;SDS011;3554;42.132;24.786;2023-04-03T14:12:49;9.90;;;9.03;;
7025;SDS011;3554;42.132;24.786;2023-04-03T14:15:18;9.20;;;8.50;;
7025;SDS011;3554;42.132;24.786;2023-04-03T14:17:48;13.60;;;9.63;;
7025;SDS011;3554;42.132;24.786;2023-04-03T14:20:17;13.40;;;9.97;;
7025;SDS011;3554;42.132;24.786;2023-04-03T14:22:46;9.77;;;9.07;;
7025;SDS011;3554;42.132;24.786;2023-04-03T14:25:16;11.47;;;10.57;;
7025;SDS011;3554;42.132;24.786;2023-04-03T14:27:45;11.43;;;10.40;;
7025;SDS011;3554;42.132;24.786;2023-04-03T14:30:15;13.97;;;10.70;;
7025;SDS011;3554;42.132;24.786;2023-04-03T14:32:45;13.20;;;11.97;;
7025;SDS011;3554;42.132;24.786;2023-04-03T14:35:12;12.57;;;11.47;;
7025;SDS011;3554;42.132;24.786;2023-04-03T14:37:39;12.77;;;11.53;;
7025;SDS011;3554;42.132;24.786;2023-04-03T14:40:08;12.50;;;11.67;;
7025;SDS011;3554;42.132;24.786;2023-04-03T14:42:40;13.07;;;11.73;;
7025;SDS011;3554;42.132;24.786;2023-04-03T14:45:08;12.87;;;11.90;;
7025;SDS011;3554;42.132;24.786;2023-04-03T14:47:39;13.53;;;12.27;;
7025;SDS011;3554;42.132;24.786;2023-04-03T14:50:11;14.27;;;12.77;;
7025;SDS011;3554;42.132;24.786;2023-04-03T14:52:41;13.50;;;12.10;;
7025;SDS011;3554;42.132;24.786;2023-04-03T14:55:09;14.43;;;13.03;;
7025;SDS011;3554;42.132;24.786;2023-04-03T14:57:37;15.10;;;12.93;;
7025;SDS011;3554;42.132;24.786;2023-04-03T15:00:11;15.67;;;14.03;;
7025;SDS011;3554;42.132;24.786;2023-04-03T15:02:39;18.97;;;13.87;;
7025;SDS011;3554;42.132;24.786;2023-04-03T15:05:07;17.80;;;14.63;;
7025;SDS011;3554;42.132;24.786;2023-04-03T15:07:36;16.27;;;14.77;;
7025;SDS011;3554;42.132;24.786;2023-04-03T15:10:13;16.53;;;14.03;;
7025;SDS011;3554;42.132;24.786;2023-04-03T15:12:42;15.87;;;13.60;;
7025;SDS011;3554;42.132;24.786;2023-04-03T15:15:11;14.40;;;12.90;;
7025;SDS011;3554;42.132;24.786;2023-04-03T15:17:38;15.63;;;13.57;;
7025;SDS011;3554;42.132;24.786;2023-04-03T15:20:09;14.47;;;13.00;;
7025;SDS011;3554;42.132;24.786;2023-04-03T15:22:38;12.07;;;10.90;;
7025;SDS011;3554;42.132;24.786;2023-04-03T15:25:06;14.80;;;12.30;;
7025;SDS011;3554;42.132;24.786;2023-04-03T15:27:33;14.70;;;12.50;;
7025;SDS011;3554;42.132;24.786;2023-04-03T15:30:00;14.77;;;13.27;;
7025;SDS011;3554;42.132;24.786;2023-04-03T15:32:28;17.70;;;14.20;;